createdAt,value
2019-05-06T00:01:33.996Z,1.30
2019-05-06T00:04:04.963Z,1.50
2019-05-06T00:06:34.592Z,1.40
2019-05-06T00:09:05.120Z,1.50
2019-05-06T00:11:34.606Z,1.30
2019-05-06T00:14:04.240Z,1.60
2019-05-06T00:16:34.641Z,1.40
2019-05-06T00:19:05.050Z,1.65
2019-05-06T00:21:35.586Z,1.50
2019-05-06T00:24:04.840Z,1.77
2019-05-06T00:26:37.984Z,1.67
2019-05-06T00:29:11.321Z,1.98
2019-05-06T00:31:40.183Z,1.70
2019-05-06T00:34:08.999Z,1.62
2019-05-06T00:36:37.854Z,1.47
2019-05-06T00:39:09.397Z,1.40
2019-05-06T00:41:38.208Z,1.42
2019-05-06T00:44:10.428Z,1.60
2019-05-06T00:46:43.781Z,1.80
2019-05-06T00:49:15.890Z,1.55
2019-05-06T00:51:48.663Z,1.57
2019-05-06T00:54:24.848Z,1.50
2019-05-06T00:56:57.169Z,1.80
2019-05-06T00:59:30.847Z,1.70
2019-05-06T01:02:04.474Z,1.75
2019-05-06T01:04:36.051Z,1.67
2019-05-06T01:07:07.868Z,1.82
2019-05-06T01:09:39.867Z,1.55
2019-05-06T01:12:14.222Z,1.47
2019-05-06T01:14:47.971Z,1.65
2019-05-06T01:17:20.495Z,1.50
2019-05-06T01:19:54.092Z,1.90
2019-05-06T01:22:26.353Z,2.00
2019-05-06T01:27:29.094Z,2.00
2019-05-06T01:30:04.274Z,1.80
2019-05-06T01:32:36.612Z,2.20
2019-05-06T01:35:10.104Z,1.92
2019-05-06T01:37:44.117Z,1.85
2019-05-06T01:40:36.604Z,1.72
2019-05-06T01:43:15.635Z,2.02
2019-05-06T01:45:47.644Z,1.77
2019-05-06T01:48:21.376Z,1.80
2019-05-06T01:50:53.994Z,2.12
2019-05-06T01:53:26.194Z,2.10
2019-05-06T01:58:29.146Z,2.10
2019-05-06T02:01:03.939Z,2.08
2019-05-06T02:03:35.342Z,2.27
2019-05-06T02:06:07.483Z,2.15
2019-05-06T02:11:10.512Z,2.37
2019-05-06T02:13:44.311Z,2.12
2019-05-06T02:16:16.446Z,2.62
2019-05-06T02:18:48.754Z,2.55
2019-05-06T02:21:33.685Z,2.70
2019-05-06T02:24:07.206Z,2.77
2019-05-06T02:26:39.392Z,2.60
2019-05-06T02:32:15.978Z,2.65
2019-05-06T02:34:38.180Z,3.00
2019-05-06T02:37:27.674Z,2.70
2019-05-06T02:39:59.953Z,2.92
2019-05-06T02:42:33.757Z,2.72
2019-05-06T02:45:06.288Z,2.87
2019-05-06T02:47:45.563Z,2.83
2019-05-06T02:50:27.985Z,2.77
2019-05-06T02:53:02.510Z,3.02
2019-05-06T02:55:36.097Z,3.15
2019-05-06T02:58:06.531Z,3.00
2019-05-06T03:00:39.015Z,2.80
2019-05-06T03:03:13.642Z,3.15
2019-05-06T03:05:44.547Z,2.80
2019-05-06T03:08:16.729Z,2.90
2019-05-06T03:13:23.325Z,3.27
2019-05-06T03:15:54.396Z,3.12
2019-05-06T03:18:26.380Z,2.85
2019-05-06T03:20:59.564Z,2.95
2019-05-06T03:23:35.529Z,3.00
2019-05-06T03:26:06.967Z,3.00
2019-05-06T03:28:39.238Z,2.85
2019-05-06T03:33:59.756Z,2.92
2019-05-06T03:36:25.518Z,3.47
2019-05-06T03:38:53.344Z,2.90
2019-05-06T03:41:26.725Z,3.10
2019-05-06T03:44:03.295Z,3.20
2019-05-06T03:46:53.843Z,3.00
2019-05-06T03:49:26.707Z,3.08
2019-05-06T03:52:02.677Z,2.87
2019-05-06T03:54:34.281Z,3.10
2019-05-06T03:57:05.727Z,3.27
2019-05-06T03:59:38.815Z,3.10
2019-05-06T04:02:13.252Z,2.92
2019-05-06T04:04:44.648Z,2.92
2019-05-06T04:07:16.990Z,3.02
2019-05-06T04:09:53.177Z,2.75
2019-05-06T04:12:23.375Z,2.90
2019-05-06T04:14:53.997Z,2.72
2019-05-06T04:17:25.129Z,2.87
2019-05-06T04:19:59.096Z,2.62
2019-05-06T04:22:33.465Z,2.37
2019-05-06T04:25:06.740Z,2.87
2019-05-06T04:27:42.779Z,2.55
2019-05-06T04:30:13.533Z,2.60
2019-05-06T04:32:43.414Z,2.25
2019-05-06T04:35:13.514Z,2.40
2019-05-06T04:37:43.716Z,1.98
2019-05-06T04:40:14.853Z,2.65
2019-05-06T04:42:44.627Z,2.40
2019-05-06T04:45:17.291Z,2.10
2019-05-06T04:47:44.683Z,2.10
2019-05-06T04:50:13.849Z,2.12
2019-05-06T04:52:43.449Z,2.20
2019-05-06T04:55:13.929Z,1.90
2019-05-06T04:57:44.084Z,2.00
2019-05-06T05:00:14.160Z,1.80
2019-05-06T05:02:46.378Z,1.80
2019-05-06T05:05:14.163Z,1.90
2019-05-06T05:07:43.150Z,2.10
2019-05-06T05:10:13.969Z,1.90
2019-05-06T05:12:53.023Z,1.90
2019-05-06T05:15:41.686Z,1.57
2019-05-06T05:18:31.862Z,1.52
2019-05-06T05:21:02.436Z,1.92
2019-05-06T05:23:31.932Z,1.70
2019-05-06T05:26:02.906Z,1.82
2019-05-06T05:28:32.079Z,1.90
2019-05-06T05:31:03.026Z,1.80
2019-05-06T05:33:32.729Z,1.82
2019-05-06T05:36:02.181Z,1.45
2019-05-06T05:38:32.040Z,1.50
2019-05-06T05:41:03.054Z,1.80
2019-05-06T05:43:33.713Z,1.85
2019-05-06T05:46:03.028Z,1.90
2019-05-06T05:48:51.966Z,1.90
2019-05-06T05:51:22.122Z,1.52
2019-05-06T05:53:52.322Z,2.08
2019-05-06T05:56:24.023Z,1.72
2019-05-06T05:58:53.499Z,2.20
2019-05-06T06:01:24.600Z,1.80
2019-05-06T06:03:53.424Z,2.10
2019-05-06T06:06:22.354Z,2.00
2019-05-06T06:08:52.337Z,1.82
2019-05-06T06:11:32.871Z,1.98
2019-05-06T06:14:03.556Z,1.90
2019-05-06T06:16:39.715Z,2.12
2019-05-06T06:19:28.411Z,2.05
2019-05-06T06:21:59.246Z,2.20
2019-05-06T06:24:35.491Z,2.52
2019-05-06T06:27:04.480Z,2.50
2019-05-06T06:29:33.318Z,2.70
2019-05-06T06:32:09.871Z,2.90
2019-05-06T06:34:52.128Z,3.10
2019-05-06T06:37:33.174Z,2.92
2019-05-06T06:40:03.563Z,3.12
2019-05-06T06:42:33.556Z,3.08
2019-05-06T06:45:03.616Z,2.92
2019-05-06T06:47:32.924Z,2.90
2019-05-06T06:50:02.861Z,3.00
2019-05-06T06:52:32.690Z,2.87
2019-05-06T06:55:02.375Z,2.67
2019-05-06T06:57:34.435Z,3.00
2019-05-06T07:00:22.255Z,2.90
2019-05-06T07:02:55.810Z,3.27
2019-05-06T07:05:33.213Z,3.22
2019-05-06T07:08:02.351Z,3.70
2019-05-06T07:10:43.254Z,3.67
2019-05-06T07:13:14.314Z,3.55
2019-05-06T07:15:43.467Z,4.12
2019-05-06T07:18:13.434Z,3.85
2019-05-06T07:20:44.553Z,3.75
2019-05-06T07:26:04.152Z,4.22
2019-05-06T07:28:33.026Z,3.87
2019-05-06T07:31:17.367Z,4.40
2019-05-06T07:33:33.570Z,4.22
2019-05-06T07:36:02.811Z,4.12
2019-05-06T07:38:32.520Z,4.50
2019-05-06T07:41:18.441Z,4.30
2019-05-06T07:43:48.897Z,4.03
2019-05-06T07:46:25.277Z,4.45
2019-05-06T07:48:54.131Z,4.35
2019-05-06T07:51:23.919Z,4.25
2019-05-06T07:53:53.024Z,4.53
2019-05-06T07:56:22.425Z,3.83
2019-05-06T07:58:53.215Z,4.33
2019-05-06T08:01:25.943Z,3.90
2019-05-06T08:03:53.296Z,4.40
2019-05-06T08:06:22.793Z,3.98
2019-05-06T08:08:53.696Z,4.50
2019-05-06T08:11:25.671Z,4.15
2019-05-06T08:13:52.936Z,4.03
2019-05-06T08:16:22.574Z,4.37
2019-05-06T08:18:52.651Z,4.40
2019-05-06T08:21:23.643Z,4.33
2019-05-06T08:23:53.575Z,4.47
2019-05-06T08:26:22.657Z,4.10
2019-05-06T08:28:52.590Z,4.35
2019-05-06T08:31:23.031Z,4.60
2019-05-06T08:33:52.548Z,4.33
2019-05-06T08:36:26.135Z,4.15
2019-05-06T08:39:02.951Z,4.08
2019-05-06T08:41:33.147Z,3.98
2019-05-06T08:44:02.809Z,4.15
2019-05-06T08:46:32.666Z,4.55
2019-05-06T08:49:03.091Z,4.42
2019-05-06T08:51:33.925Z,4.58
2019-05-06T08:54:04.350Z,4.22
2019-05-06T08:56:33.170Z,3.85
2019-05-06T08:59:03.151Z,3.83
2019-05-06T09:01:36.830Z,3.98
2019-05-06T09:04:12.478Z,3.83
2019-05-06T09:06:37.928Z,4.25
2019-05-06T09:09:08.371Z,4.28
2019-05-06T09:11:37.185Z,4.03
2019-05-06T09:14:09.457Z,4.20
2019-05-06T09:16:36.586Z,3.70
2019-05-06T09:19:05.419Z,4.42
2019-05-06T09:21:34.301Z,4.20
2019-05-06T09:24:03.129Z,4.67
2019-05-06T09:26:36.335Z,4.67
2019-05-06T09:29:15.613Z,4.08
2019-05-06T09:31:52.287Z,3.90
2019-05-06T09:34:23.360Z,3.95
2019-05-06T09:37:13.457Z,4.15
2019-05-06T09:39:44.648Z,3.90
2019-05-06T09:42:14.047Z,3.45
2019-05-06T09:44:44.672Z,2.77
2019-05-06T09:47:15.301Z,2.85
2019-05-06T09:49:44.212Z,2.75
2019-05-06T09:52:13.181Z,2.30
2019-05-06T09:55:02.996Z,2.92
2019-05-06T09:57:32.693Z,2.50
2019-05-06T10:00:04.576Z,2.30
2019-05-06T10:02:32.651Z,2.90
2019-05-06T10:05:03.522Z,2.85
2019-05-06T10:07:33.932Z,2.40
2019-05-06T10:10:02.698Z,2.58
2019-05-06T10:12:32.904Z,2.60
2019-05-06T10:15:03.142Z,2.25
2019-05-06T10:17:32.401Z,1.77
2019-05-06T10:20:02.853Z,2.22
2019-05-06T10:22:32.450Z,3.02
2019-05-06T10:25:03.657Z,2.52
2019-05-06T10:27:32.152Z,2.50
2019-05-06T10:30:14.739Z,2.47
2019-05-06T10:32:47.819Z,2.33
2019-05-06T10:35:16.992Z,2.05
2019-05-06T10:38:06.400Z,2.30
2019-05-06T10:40:59.661Z,1.90
2019-05-06T10:43:53.777Z,2.10
2019-05-06T10:46:22.705Z,2.00
2019-05-06T10:48:53.058Z,2.08
2019-05-06T10:51:32.843Z,2.40
2019-05-06T10:54:03.180Z,2.67
2019-05-06T10:56:49.079Z,2.67
2019-05-06T10:59:06.044Z,2.40
2019-05-06T11:01:36.447Z,2.30
2019-05-06T11:04:05.360Z,2.05
2019-05-06T11:06:34.229Z,2.10
2019-05-06T11:09:03.327Z,2.22
2019-05-06T11:11:38.114Z,2.50
2019-05-06T11:14:03.249Z,2.58
2019-05-06T11:16:33.269Z,2.80
2019-05-06T11:19:05.068Z,2.83
2019-05-06T11:21:32.997Z,2.42
2019-05-06T11:24:05.921Z,3.02
2019-05-06T11:26:32.315Z,2.92
2019-05-06T11:29:08.428Z,3.10
2019-05-06T11:31:47.768Z,2.58
2019-05-06T11:34:18.163Z,3.37
2019-05-06T11:36:54.651Z,2.47
2019-05-06T11:39:23.624Z,2.72
2019-05-06T11:42:14.435Z,2.83
2019-05-06T11:44:23.855Z,2.60
2019-05-06T11:46:53.112Z,2.50
2019-05-06T11:49:23.328Z,4.50
2019-05-06T11:51:52.624Z,3.02
2019-05-06T11:54:24.454Z,3.10
2019-05-06T11:56:57.987Z,3.72
2019-05-06T11:59:24.598Z,3.15
2019-05-06T12:02:02.618Z,2.85
2019-05-06T12:04:32.933Z,2.80
2019-05-06T12:07:10.362Z,2.70
2019-05-06T12:09:33.050Z,2.72
2019-05-06T12:12:03.243Z,2.58
2019-05-06T12:14:32.583Z,2.90
2019-05-06T12:17:02.228Z,2.87
2019-05-06T12:19:32.400Z,2.90
2019-05-06T12:22:01.634Z,2.62
2019-05-06T12:24:30.497Z,2.55
2019-05-06T12:26:59.326Z,2.45
2019-05-06T12:29:28.172Z,2.55
2019-05-06T12:31:58.561Z,2.37
2019-05-06T12:34:27.435Z,2.47
2019-05-06T12:36:57.866Z,2.72
2019-05-06T12:39:27.486Z,2.42
2019-05-06T12:42:06.816Z,2.83
2019-05-06T12:44:37.222Z,2.95
2019-05-06T12:47:07.648Z,2.80
2019-05-06T12:49:36.485Z,2.95
2019-05-06T12:52:05.343Z,2.72
2019-05-06T12:54:34.196Z,2.70
2019-05-06T12:57:03.501Z,2.62
2019-05-06T12:59:32.481Z,2.72
2019-05-06T13:02:02.649Z,2.70
2019-05-06T13:04:50.324Z,2.90
2019-05-06T13:07:02.968Z,2.30
2019-05-06T13:09:33.144Z,2.70
2019-05-06T13:12:03.917Z,2.45
2019-05-06T13:14:33.234Z,2.30
2019-05-06T13:17:02.861Z,2.72
2019-05-06T13:19:32.375Z,2.20
2019-05-06T13:22:03.706Z,2.47
2019-05-06T13:24:32.622Z,2.40
2019-05-06T13:27:02.593Z,2.50
2019-05-06T13:29:35.545Z,2.45
2019-05-06T13:32:03.919Z,2.40
2019-05-06T13:34:33.388Z,2.40
2019-05-06T13:37:02.794Z,2.10
2019-05-06T13:39:32.889Z,2.40
2019-05-06T13:42:02.086Z,2.42
2019-05-06T13:44:32.075Z,2.30
2019-05-06T13:47:02.926Z,2.40
2019-05-06T13:49:39.268Z,2.22
2019-05-06T13:52:09.118Z,2.05
2019-05-06T13:54:37.934Z,2.20
2019-05-06T13:57:06.792Z,2.27
2019-05-06T13:59:36.968Z,2.45
2019-05-06T14:02:26.006Z,2.45
2019-05-06T14:04:54.816Z,2.40
2019-05-06T14:07:24.482Z,2.60
2019-05-06T14:09:53.524Z,2.40
2019-05-06T14:12:22.352Z,2.22
2019-05-06T14:14:52.740Z,2.30
2019-05-06T14:17:22.351Z,2.70
2019-05-06T14:19:53.359Z,2.10
2019-05-06T14:22:23.233Z,2.12
2019-05-06T14:24:54.442Z,2.40
2019-05-06T14:27:23.262Z,2.40
2019-05-06T14:30:04.675Z,2.62
2019-05-06T14:32:33.241Z,2.50
2019-05-06T14:35:02.093Z,2.00
2019-05-06T14:37:32.958Z,2.40
2019-05-06T14:40:03.204Z,2.27
2019-05-06T14:42:32.944Z,2.40
2019-05-06T14:45:02.183Z,2.33
2019-05-06T14:47:32.833Z,2.25
2019-05-06T14:50:03.910Z,2.75
2019-05-06T14:52:33.347Z,2.47
2019-05-06T14:55:04.240Z,2.90
2019-05-06T14:57:33.054Z,2.70
2019-05-06T15:00:04.153Z,2.50
2019-05-06T15:02:33.678Z,2.55
2019-05-06T15:05:03.217Z,2.58
2019-05-06T15:07:32.884Z,2.70
2019-05-06T15:10:16.450Z,2.95
2019-05-06T15:12:33.396Z,2.10
2019-05-06T15:15:03.781Z,2.60
2019-05-06T15:17:33.915Z,2.67
2019-05-06T15:20:04.732Z,3.02
2019-05-06T15:22:33.599Z,2.50
2019-05-06T15:25:02.546Z,2.75
2019-05-06T15:27:33.438Z,2.77
2019-05-06T15:30:03.511Z,2.90
2019-05-06T15:32:36.658Z,3.10
2019-05-06T15:35:12.850Z,2.95
2019-05-06T15:37:43.582Z,2.52
2019-05-06T15:40:13.041Z,3.00
2019-05-06T15:42:42.512Z,2.92
2019-05-06T15:45:12.585Z,3.12
2019-05-06T15:47:42.562Z,3.17
2019-05-06T15:50:12.901Z,2.65
2019-05-06T15:52:43.462Z,3.27
2019-05-06T15:55:13.397Z,3.25
2019-05-06T15:57:43.543Z,3.08
2019-05-06T16:00:14.983Z,3.40
2019-05-06T16:02:43.857Z,3.10
2019-05-06T16:05:19.427Z,3.00
2019-05-06T16:07:43.443Z,3.20
2019-05-06T16:10:13.368Z,3.27
2019-05-06T16:12:44.044Z,3.30
2019-05-06T16:15:13.257Z,3.50
2019-05-06T16:17:42.767Z,3.37
2019-05-06T16:20:12.994Z,3.55
2019-05-06T16:22:44.531Z,3.47
2019-05-06T16:25:16.343Z,3.20
2019-05-06T16:27:46.719Z,3.17
2019-05-06T16:30:17.646Z,3.80
2019-05-06T16:32:46.482Z,3.45
2019-05-06T16:35:15.743Z,3.67
2019-05-06T16:37:44.575Z,3.70
2019-05-06T16:40:14.337Z,3.52
2019-05-06T16:42:45.941Z,3.50
2019-05-06T16:45:13.687Z,3.90
2019-05-06T16:47:44.690Z,4.20
2019-05-06T16:50:17.978Z,3.65
2019-05-06T16:52:46.849Z,3.85
2019-05-06T16:55:24.223Z,3.80
2019-05-06T16:58:02.439Z,4.28
2019-05-06T17:00:32.778Z,4.25
2019-05-06T17:03:09.188Z,5.10
2019-05-06T17:05:39.587Z,4.45
2019-05-06T17:08:08.445Z,4.42
2019-05-06T17:10:40.146Z,4.12
2019-05-06T17:13:07.784Z,4.60
2019-05-06T17:15:36.608Z,4.03
2019-05-06T17:18:05.513Z,3.98
2019-05-06T17:20:34.332Z,3.95
2019-05-06T17:23:03.159Z,3.85
2019-05-06T17:25:33.445Z,3.90
2019-05-06T17:28:04.192Z,4.70
2019-05-06T17:30:34.601Z,4.15
2019-05-06T17:33:22.437Z,4.10
2019-05-06T17:35:52.209Z,4.25
2019-05-06T17:38:22.717Z,3.98
2019-05-06T17:40:52.401Z,4.10
2019-05-06T17:43:22.572Z,4.30
2019-05-06T17:46:01.806Z,3.62
2019-05-06T17:48:28.905Z,3.50
2019-05-06T17:51:13.662Z,3.67
2019-05-06T17:53:46.279Z,4.40
2019-05-06T17:56:15.145Z,3.85
2019-05-06T17:58:43.965Z,4.20
2019-05-06T18:01:14.526Z,4.00
2019-05-06T18:03:43.351Z,4.40
2019-05-06T18:06:14.264Z,3.72
2019-05-06T18:08:43.283Z,3.90
2019-05-06T18:11:13.052Z,4.03
2019-05-06T18:13:42.397Z,3.90
2019-05-06T18:16:13.238Z,4.28
2019-05-06T18:18:41.717Z,4.12
2019-05-06T18:21:12.352Z,4.40
2019-05-06T18:23:41.110Z,4.20
2019-05-06T18:26:09.936Z,4.60
2019-05-06T18:28:38.891Z,4.60
2019-05-06T18:31:07.736Z,4.42
2019-05-06T18:33:36.611Z,5.08
2019-05-06T18:36:06.419Z,5.10
2019-05-06T18:38:35.384Z,5.28
2019-05-06T18:41:04.206Z,4.87
2019-05-06T18:43:33.531Z,4.45
2019-05-06T18:46:03.086Z,4.40
2019-05-06T18:48:35.088Z,4.50
2019-05-06T18:51:03.110Z,4.65
2019-05-06T18:53:33.100Z,5.00
2019-05-06T18:56:03.121Z,4.70
2019-05-06T18:58:32.878Z,4.60
2019-05-06T19:01:03.807Z,4.72
2019-05-06T19:03:36.570Z,4.60
2019-05-06T19:06:05.410Z,4.83
2019-05-06T19:08:42.233Z,5.35
2019-05-06T19:11:12.911Z,5.05
2019-05-06T19:13:41.858Z,5.10
2019-05-06T19:16:12.680Z,5.00
2019-05-06T19:18:42.644Z,4.92
2019-05-06T19:21:13.414Z,4.85
2019-05-06T19:23:42.818Z,4.47
2019-05-06T19:26:12.379Z,4.95
2019-05-06T19:28:43.055Z,5.17
2019-05-06T19:31:12.392Z,5.50
2019-05-06T19:33:43.061Z,5.25
2019-05-06T19:36:12.626Z,5.30
2019-05-06T19:38:42.402Z,5.60
2019-05-06T19:41:12.861Z,5.50
2019-05-06T19:43:42.065Z,5.70
2019-05-06T19:46:12.114Z,5.87
2019-05-06T19:48:43.177Z,5.62
2019-05-06T19:51:11.718Z,5.10
2019-05-06T19:53:42.715Z,5.60
2019-05-06T19:56:12.339Z,5.40
2019-05-06T19:58:42.855Z,5.45
2019-05-06T20:01:12.034Z,5.33
2019-05-06T20:03:40.910Z,5.17
2019-05-06T20:06:26.381Z,5.28
2019-05-06T20:08:56.750Z,5.90
2019-05-06T20:11:27.128Z,6.05
2019-05-06T20:13:55.996Z,5.92
2019-05-06T20:16:24.823Z,6.53
2019-05-06T20:18:53.687Z,6.45
2019-05-06T20:21:23.088Z,6.42
2019-05-06T20:23:52.637Z,6.08
2019-05-06T20:26:22.070Z,6.15
2019-05-06T20:28:52.598Z,6.33
2019-05-06T20:31:22.642Z,6.22
2019-05-06T20:33:52.841Z,6.10
2019-05-06T20:36:22.583Z,6.10
2019-05-06T20:38:51.915Z,5.62
2019-05-06T20:41:22.177Z,6.08
2019-05-06T20:43:51.624Z,6.08
2019-05-06T20:46:22.002Z,5.97
2019-05-06T20:48:52.903Z,5.72
2019-05-06T20:51:21.972Z,5.47
2019-05-06T20:53:50.984Z,6.08
2019-05-06T20:56:21.855Z,5.97
2019-05-06T20:58:50.325Z,5.62
2019-05-06T21:01:19.180Z,5.62
2019-05-06T21:03:48.007Z,6.35
2019-05-06T21:06:16.853Z,5.95
2019-05-06T21:08:45.687Z,6.35
2019-05-06T21:11:25.669Z,5.90
2019-05-06T21:13:45.008Z,6.12
2019-05-06T21:16:13.869Z,6.15
2019-05-06T21:18:42.697Z,5.92
2019-05-06T21:21:13.430Z,5.95
2019-05-06T21:23:42.764Z,6.00
2019-05-06T21:26:13.623Z,6.17
2019-05-06T21:28:43.597Z,6.03
2019-05-06T21:31:12.984Z,5.72
2019-05-06T21:33:42.539Z,5.83
2019-05-06T21:36:12.416Z,5.55
2019-05-06T21:38:42.698Z,5.30
2019-05-06T21:41:12.401Z,5.35
2019-05-06T21:43:48.905Z,5.22
2019-05-06T21:46:12.960Z,5.15
2019-05-06T21:48:42.171Z,5.75
2019-05-06T21:51:12.683Z,5.10
2019-05-06T21:53:41.538Z,5.25
2019-05-06T21:56:10.417Z,5.33
2019-05-06T21:58:39.266Z,5.80
2019-05-06T22:01:08.981Z,5.30
2019-05-06T22:03:37.827Z,4.95
2019-05-06T22:06:06.655Z,5.42
2019-05-06T22:08:35.549Z,5.60
2019-05-06T22:11:04.367Z,5.40
2019-05-06T22:13:33.514Z,5.08
2019-05-06T22:16:04.767Z,4.90
2019-05-06T22:18:33.021Z,4.85
2019-05-06T22:21:09.245Z,4.33
2019-05-06T22:23:48.505Z,4.45
2019-05-06T22:26:17.408Z,3.90
2019-05-06T22:28:46.330Z,4.22
2019-05-06T22:31:15.857Z,3.92
2019-05-06T22:33:44.720Z,3.98
2019-05-06T22:36:13.545Z,3.80
2019-05-06T22:38:44.175Z,3.17
2019-05-06T22:41:12.951Z,2.85
2019-05-06T22:43:42.386Z,2.60
2019-05-06T22:46:12.439Z,2.37
2019-05-06T22:48:43.333Z,2.02
2019-05-06T22:51:12.476Z,2.35
2019-05-06T22:53:42.506Z,1.98
2019-05-06T22:56:13.194Z,1.72
2019-05-06T22:58:42.785Z,2.75
2019-05-06T23:01:13.615Z,2.60
2019-05-06T23:03:43.005Z,2.65
2019-05-06T23:06:12.606Z,2.80
2019-05-06T23:08:43.293Z,2.98
2019-05-06T23:11:13.332Z,2.72
2019-05-06T23:13:44.156Z,2.90
2019-05-06T23:16:13.437Z,2.10
2019-05-06T23:18:42.883Z,1.45
2019-05-06T23:21:14.642Z,1.15
2019-05-06T23:23:43.511Z,0.95
2019-05-06T23:26:22.550Z,1.00
2019-05-06T23:28:52.532Z,1.20
2019-05-06T23:31:21.969Z,1.50
2019-05-06T23:33:53.380Z,1.35
2019-05-06T23:36:22.953Z,1.32
2019-05-06T23:39:28.316Z,1.50
2019-05-06T23:42:33.551Z,1.40
2019-05-06T23:45:38.622Z,1.50
2019-05-06T23:48:43.580Z,1.40
2019-05-06T23:51:48.602Z,1.67
2019-05-06T23:54:53.812Z,1.57
2019-05-06T23:57:22.519Z,1.80
2019-05-06T23:59:54.482Z,1.60
